createdAt,value
2018-06-22T00:00:11.594Z,1015.33
2018-06-22T00:01:11.582Z,1015.25
2018-06-22T00:02:11.571Z,1015.27
2018-06-22T00:03:11.566Z,1015.27
2018-06-22T00:04:11.558Z,1015.27
2018-06-22T00:05:11.554Z,1015.20
2018-06-22T00:06:11.547Z,1015.25
2018-06-22T00:07:11.535Z,1015.25
2018-06-22T00:08:11.527Z,1015.27
2018-06-22T00:09:11.516Z,1015.27
2018-06-22T00:10:11.507Z,1015.24
2018-06-22T00:11:11.501Z,1015.24
2018-06-22T00:12:11.494Z,1015.32
2018-06-22T00:13:11.489Z,1015.27
2018-06-22T00:14:11.538Z,1015.26
2018-06-22T00:15:11.472Z,1015.24
2018-06-22T00:16:11.461Z,1015.20
2018-06-22T00:17:11.453Z,1015.21
2018-06-22T00:18:11.460Z,1015.15
2018-06-22T00:19:11.441Z,1015.18
2018-06-22T00:20:11.432Z,1015.16
2018-06-22T00:21:11.422Z,1015.15
2018-06-22T00:22:11.419Z,1015.10
2018-06-22T00:23:11.406Z,1015.07
2018-06-22T00:24:11.395Z,1015.05
2018-06-22T00:25:11.391Z,1014.99
2018-06-22T00:26:11.403Z,1015.02
2018-06-22T00:27:11.375Z,1015.02
2018-06-22T00:28:11.366Z,1015.04
2018-06-22T00:29:11.361Z,1015.02
2018-06-22T00:30:11.348Z,1014.97
2018-06-22T00:31:11.341Z,1015.00
2018-06-22T00:32:11.331Z,1014.97
2018-06-22T00:33:11.325Z,1015.03
2018-06-22T00:34:11.323Z,1015.05
2018-06-22T00:35:11.312Z,1014.99
2018-06-22T00:36:11.302Z,1014.98
2018-06-22T00:37:11.290Z,1014.96
2018-06-22T00:38:11.283Z,1014.99
2018-06-22T00:39:11.282Z,1014.96
2018-06-22T00:40:11.266Z,1015.00
2018-06-22T00:41:11.263Z,1015.00
2018-06-22T00:42:11.252Z,1014.88
2018-06-22T00:43:11.267Z,1014.90
2018-06-22T00:44:11.231Z,1014.98
2018-06-22T00:45:11.228Z,1014.94
2018-06-22T00:46:11.216Z,1014.99
2018-06-22T00:47:11.208Z,1014.89
2018-06-22T00:48:11.203Z,1014.93
2018-06-22T00:49:11.195Z,1014.89
2018-06-22T00:50:11.191Z,1014.95
2018-06-22T00:51:11.181Z,1014.86
2018-06-22T00:52:11.170Z,1014.85
2018-06-22T00:53:11.162Z,1014.80
2018-06-22T00:54:11.151Z,1014.82
2018-06-22T00:55:11.147Z,1014.75
2018-06-22T00:56:11.139Z,1014.81
2018-06-22T00:57:11.130Z,1014.84
2018-06-22T00:58:11.118Z,1014.86
2018-06-22T00:59:11.112Z,1014.84
2018-06-22T01:00:11.104Z,1014.78
2018-06-22T01:01:11.097Z,1014.83
2018-06-22T01:02:11.086Z,1014.79
2018-06-22T01:03:11.106Z,1014.76
2018-06-22T01:04:11.074Z,1014.75
2018-06-22T01:05:11.060Z,1014.76
2018-06-22T01:06:11.051Z,1014.75
2018-06-22T01:07:11.046Z,1014.73
2018-06-22T01:08:11.039Z,1014.73
2018-06-22T01:09:11.031Z,1014.78
2018-06-22T01:10:11.024Z,1014.68
2018-06-22T01:11:11.020Z,1014.69
2018-06-22T01:12:11.001Z,1014.63
2018-06-22T01:13:10.996Z,1014.64
2018-06-22T01:14:10.989Z,1014.64
2018-06-22T01:15:10.987Z,1014.63
2018-06-22T01:16:10.998Z,1014.66
2018-06-22T01:17:10.964Z,1014.67
2018-06-22T01:18:10.958Z,1014.66
2018-06-22T01:19:10.946Z,1014.60
2018-06-22T01:20:10.938Z,1014.64
2018-06-22T01:21:10.928Z,1014.65
2018-06-22T01:22:10.970Z,1014.62
2018-06-22T01:23:10.916Z,1014.68
2018-06-22T01:24:10.912Z,1014.68
2018-06-22T01:25:10.900Z,1014.60
2018-06-22T01:26:10.890Z,1014.65
2018-06-22T01:27:10.878Z,1014.65
2018-06-22T01:28:10.874Z,1014.66
2018-06-22T01:29:10.868Z,1014.60
2018-06-22T01:30:10.858Z,1014.61
2018-06-22T01:31:10.852Z,1014.60
2018-06-22T01:32:10.843Z,1014.55
2018-06-22T01:33:10.833Z,1014.59
2018-06-22T01:34:10.821Z,1014.59
2018-06-22T01:35:10.822Z,1014.56
2018-06-22T01:36:10.817Z,1014.54
2018-06-22T01:37:10.808Z,1014.58
2018-06-22T01:38:10.794Z,1014.58
2018-06-22T01:39:10.785Z,1014.49
2018-06-22T01:40:10.771Z,1014.51
2018-06-22T01:41:10.763Z,1014.53
2018-06-22T01:42:10.763Z,1014.51
2018-06-22T01:43:10.752Z,1014.54
2018-06-22T01:44:10.743Z,1014.57
2018-06-22T01:45:10.736Z,1014.48
2018-06-22T01:46:10.722Z,1014.54
2018-06-22T01:47:10.716Z,1014.52
2018-06-22T01:48:10.707Z,1014.52
2018-06-22T01:49:10.697Z,1014.52
2018-06-22T01:50:10.695Z,1014.48
2018-06-22T01:51:10.687Z,1014.41
2018-06-22T01:52:10.679Z,1014.43
2018-06-22T01:53:10.664Z,1014.42
2018-06-22T01:54:10.656Z,1014.43
2018-06-22T01:55:10.648Z,1014.38
2018-06-22T01:56:10.643Z,1014.40
2018-06-22T01:57:10.640Z,1014.48
2018-06-22T01:58:10.627Z,1014.37
2018-06-22T01:59:10.621Z,1014.38
2018-06-22T02:00:10.607Z,1014.42
2018-06-22T02:01:10.599Z,1014.46
2018-06-22T02:02:10.592Z,1014.42
2018-06-22T02:03:10.583Z,1014.44
2018-06-22T02:04:10.584Z,1014.38
2018-06-22T02:05:10.571Z,1014.34
2018-06-22T02:06:10.562Z,1014.39
2018-06-22T02:07:10.624Z,1014.29
2018-06-22T02:08:10.541Z,1014.35
2018-06-22T02:09:10.535Z,1014.35
2018-06-22T02:10:10.526Z,1014.36
2018-06-22T02:11:10.524Z,1014.48
2018-06-22T02:12:10.514Z,1014.24
2018-06-22T02:13:10.507Z,1014.34
2018-06-22T02:14:10.497Z,1014.38
2018-06-22T02:15:10.487Z,1014.43
2018-06-22T02:16:10.481Z,1014.39
2018-06-22T02:17:10.469Z,1014.38
2018-06-22T02:18:10.465Z,1014.39
2018-06-22T02:19:10.457Z,1014.36
2018-06-22T02:20:10.452Z,1014.40
2018-06-22T02:21:10.436Z,1014.43
2018-06-22T02:22:10.440Z,1014.41
2018-06-22T02:23:10.419Z,1014.41
2018-06-22T02:24:10.411Z,1014.37
2018-06-22T02:25:10.410Z,1014.36
2018-06-22T02:26:10.400Z,1014.35
2018-06-22T02:27:10.391Z,1014.39
2018-06-22T02:28:10.399Z,1014.37
2018-06-22T02:29:10.373Z,1014.40
2018-06-22T02:30:10.363Z,1014.30
2018-06-22T02:31:10.358Z,1014.28
2018-06-22T02:32:10.354Z,1014.32
2018-06-22T02:33:10.341Z,1014.28
2018-06-22T02:34:10.337Z,1014.28
2018-06-22T02:35:10.325Z,1014.25
2018-06-22T02:36:10.316Z,1014.20
2018-06-22T02:37:10.311Z,1014.27
2018-06-22T02:38:10.303Z,1014.30
2018-06-22T02:39:10.293Z,1014.18
2018-06-22T02:40:10.284Z,1014.20
2018-06-22T02:41:10.279Z,1014.20
2018-06-22T02:42:10.267Z,1014.21
2018-06-22T02:43:10.258Z,1014.22
2018-06-22T02:44:10.250Z,1014.23
2018-06-22T02:45:10.243Z,1014.22
2018-06-22T02:46:10.230Z,1014.21
2018-06-22T02:47:10.229Z,1014.23
2018-06-22T02:48:10.223Z,1014.14
2018-06-22T02:49:10.211Z,1014.19
2018-06-22T02:50:10.202Z,1014.24
2018-06-22T02:51:10.195Z,1014.27
2018-06-22T02:52:10.186Z,1014.25
2018-06-22T02:53:10.180Z,1014.21
2018-06-22T02:54:10.171Z,1014.19
2018-06-22T02:55:10.177Z,1014.24
2018-06-22T02:56:10.151Z,1014.28
2018-06-22T02:57:10.146Z,1014.23
2018-06-22T02:58:10.137Z,1014.22
2018-06-22T02:59:10.128Z,1014.21
2018-06-22T03:00:10.172Z,1014.17
2018-06-22T03:01:10.114Z,1014.15
2018-06-22T03:02:10.106Z,1014.04
2018-06-22T03:03:10.095Z,1014.17
2018-06-22T03:04:10.090Z,1014.16
2018-06-22T03:05:10.078Z,1014.08
2018-06-22T03:06:10.071Z,1014.08
2018-06-22T03:07:10.065Z,1014.11
2018-06-22T03:08:10.085Z,1014.09
2018-06-22T03:09:10.048Z,1014.03
2018-06-22T03:10:10.040Z,1014.04
2018-06-22T03:11:10.029Z,1013.99
2018-06-22T03:12:10.029Z,1013.96
2018-06-22T03:13:10.016Z,1013.98
2018-06-22T03:14:10.030Z,1013.90
2018-06-22T03:15:10.007Z,1013.97
2018-06-22T03:16:09.991Z,1014.03
2018-06-22T03:17:09.982Z,1014.05
2018-06-22T03:18:09.979Z,1014.04
2018-06-22T03:19:09.964Z,1013.99
2018-06-22T03:20:09.959Z,1014.01
2018-06-22T03:21:09.966Z,1013.87
2018-06-22T03:22:09.947Z,1013.99
2018-06-22T03:23:09.943Z,1014.07
2018-06-22T03:24:09.924Z,1014.08
2018-06-22T03:25:09.916Z,1014.05
2018-06-22T03:26:09.908Z,1013.99
2018-06-22T03:27:09.898Z,1013.99
2018-06-22T03:28:09.897Z,1014.06
2018-06-22T03:29:09.886Z,1014.01
2018-06-22T03:30:09.889Z,1014.04
2018-06-22T03:31:09.868Z,1013.96
2018-06-22T03:32:09.866Z,1013.95
2018-06-22T03:33:09.850Z,1013.90
2018-06-22T03:34:09.852Z,1013.93
2018-06-22T03:35:09.840Z,1013.88
2018-06-22T03:36:09.827Z,1013.88
2018-06-22T03:37:09.821Z,1013.96
2018-06-22T03:38:09.813Z,1013.90
2018-06-22T03:39:09.800Z,1013.91
2018-06-22T03:40:09.792Z,1013.90
2018-06-22T03:41:09.788Z,1013.95
2018-06-22T03:42:09.779Z,1013.91
2018-06-22T03:43:09.769Z,1013.92
2018-06-22T03:44:09.759Z,1013.97
2018-06-22T03:45:09.751Z,1013.93
2018-06-22T03:46:09.743Z,1013.95
2018-06-22T03:47:09.735Z,1013.94
2018-06-22T03:48:09.723Z,1013.93
2018-06-22T03:49:09.723Z,1013.88
2018-06-22T03:50:09.712Z,1013.89
2018-06-22T03:51:09.702Z,1013.94
2018-06-22T03:52:09.692Z,1013.89
2018-06-22T03:53:09.687Z,1013.88
2018-06-22T03:54:09.678Z,1013.85
2018-06-22T03:55:09.669Z,1013.78
2018-06-22T03:56:09.663Z,1013.88
2018-06-22T03:57:09.657Z,1013.85
2018-06-22T03:58:09.646Z,1013.84
2018-06-22T03:59:09.634Z,1013.87
2018-06-22T04:00:09.630Z,1013.89
2018-06-22T04:01:09.620Z,1013.85
2018-06-22T04:02:09.614Z,1013.82
2018-06-22T04:03:09.607Z,1013.78
2018-06-22T04:04:09.598Z,1013.83
2018-06-22T04:05:09.589Z,1013.80
2018-06-22T04:06:09.579Z,1013.74
2018-06-22T04:07:09.569Z,1013.73
2018-06-22T04:08:09.586Z,1013.65
2018-06-22T04:09:09.557Z,1013.66
2018-06-22T04:10:09.548Z,1013.69
2018-06-22T04:11:09.535Z,1013.66
2018-06-22T04:12:09.531Z,1013.65
2018-06-22T04:13:09.526Z,1013.64
2018-06-22T04:14:09.514Z,1013.66
2018-06-22T04:15:09.503Z,1013.65
2018-06-22T04:16:09.495Z,1013.62
2018-06-22T04:17:09.488Z,1013.60
2018-06-22T04:18:09.482Z,1013.59
2018-06-22T04:19:09.472Z,1013.66
2018-06-22T04:20:09.464Z,1013.73
2018-06-22T04:21:09.454Z,1013.65
2018-06-22T04:22:09.453Z,1013.63
2018-06-22T04:23:09.436Z,1013.62
2018-06-22T04:24:09.427Z,1013.60
2018-06-22T04:25:09.436Z,1013.57
2018-06-22T04:26:09.416Z,1013.61
2018-06-22T04:27:09.449Z,1013.59
2018-06-22T04:28:09.395Z,1013.69
2018-06-22T04:29:09.387Z,1013.60
2018-06-22T04:30:09.378Z,1013.70
2018-06-22T04:31:09.370Z,1013.66
2018-06-22T04:32:09.366Z,1013.67
2018-06-22T04:33:09.357Z,1013.73
2018-06-22T04:34:09.349Z,1013.77
2018-06-22T04:35:09.340Z,1013.76
2018-06-22T04:36:09.330Z,1013.83
2018-06-22T04:37:09.321Z,1013.86
2018-06-22T04:38:09.316Z,1013.80
2018-06-22T04:39:09.309Z,1013.81
2018-06-22T04:40:09.295Z,1013.89
2018-06-22T04:41:09.292Z,1013.86
2018-06-22T04:42:09.287Z,1013.87
2018-06-22T04:43:09.270Z,1013.92
2018-06-22T04:44:09.262Z,1013.84
2018-06-22T04:45:09.255Z,1013.87
2018-06-22T04:46:09.249Z,1013.93
2018-06-22T04:47:09.241Z,1013.93
2018-06-22T04:48:09.234Z,1013.97
2018-06-22T04:49:09.227Z,1013.99
2018-06-22T04:50:09.214Z,1013.95
2018-06-22T04:51:09.206Z,1014.00
2018-06-22T04:52:09.195Z,1014.04
2018-06-22T04:53:09.194Z,1014.03
2018-06-22T04:54:09.185Z,1014.06
2018-06-22T04:55:09.174Z,1014.08
2018-06-22T04:56:09.178Z,1014.05
2018-06-22T04:57:09.158Z,1014.11
2018-06-22T04:58:09.152Z,1014.12
2018-06-22T04:59:09.140Z,1014.13
2018-06-22T05:00:09.134Z,1014.12
2018-06-22T05:01:09.131Z,1014.05
2018-06-22T05:02:09.117Z,1014.12
2018-06-22T05:03:09.108Z,1014.05
2018-06-22T05:04:09.097Z,1014.11
2018-06-22T05:05:09.094Z,1014.19
2018-06-22T05:06:09.085Z,1014.09
2018-06-22T05:07:09.078Z,1014.09
2018-06-22T05:08:09.066Z,1014.17
2018-06-22T05:09:09.054Z,1014.12
2018-06-22T05:10:09.050Z,1014.09
2018-06-22T05:11:09.037Z,1014.15
2018-06-22T05:12:09.039Z,1014.15
2018-06-22T05:13:09.022Z,1014.14
2018-06-22T05:14:09.016Z,1014.19
2018-06-22T05:15:09.008Z,1014.22
2018-06-22T05:16:08.998Z,1014.26
2018-06-22T05:17:08.991Z,1014.22
2018-06-22T05:18:08.977Z,1014.19
2018-06-22T05:19:08.968Z,1014.25
2018-06-22T05:20:08.995Z,1014.23
2018-06-22T05:21:08.953Z,1014.26
2018-06-22T05:22:08.945Z,1014.24
2018-06-22T05:23:08.941Z,1014.22
2018-06-22T05:24:08.924Z,1014.19
2018-06-22T05:25:08.919Z,1014.17
2018-06-22T05:26:08.934Z,1014.26
2018-06-22T05:27:08.901Z,1014.23
2018-06-22T05:28:08.890Z,1014.30
2018-06-22T05:29:08.887Z,1014.27
2018-06-22T05:30:08.875Z,1014.29
2018-06-22T05:31:08.872Z,1014.33
2018-06-22T05:32:08.856Z,1014.36
2018-06-22T05:33:08.845Z,1014.33
2018-06-22T05:34:08.840Z,1014.31
2018-06-22T05:35:08.833Z,1014.36
2018-06-22T05:36:08.823Z,1014.32
2018-06-22T05:37:08.813Z,1014.36
2018-06-22T05:38:08.807Z,1014.37
2018-06-22T05:39:08.801Z,1014.37
2018-06-22T05:40:08.789Z,1014.43
2018-06-22T05:41:08.788Z,1014.44
2018-06-22T05:42:08.767Z,1014.47
2018-06-22T05:43:08.764Z,1014.43
2018-06-22T05:44:08.762Z,1014.36
2018-06-22T05:45:08.748Z,1014.41
2018-06-22T05:46:08.739Z,1014.40
2018-06-22T05:47:08.725Z,1014.47
2018-06-22T05:48:08.717Z,1014.45
2018-06-22T05:49:08.709Z,1014.38
2018-06-22T05:50:08.703Z,1014.42
2018-06-22T05:51:08.694Z,1014.38
2018-06-22T05:52:08.684Z,1014.47
2018-06-22T05:53:08.678Z,1014.51
2018-06-22T05:54:08.668Z,1014.45
2018-06-22T05:55:08.657Z,1014.52
2018-06-22T05:56:08.648Z,1014.53
2018-06-22T05:57:08.645Z,1014.50
2018-06-22T05:58:08.636Z,1014.57
2018-06-22T05:59:08.627Z,1014.52
2018-06-22T06:00:08.615Z,1014.48
2018-06-22T06:01:08.604Z,1014.50
2018-06-22T06:02:08.597Z,1014.51
2018-06-22T06:03:08.590Z,1014.49
2018-06-22T06:04:08.583Z,1014.47
2018-06-22T06:05:08.572Z,1014.50
2018-06-22T06:06:08.566Z,1014.45
2018-06-22T06:07:08.558Z,1014.54
2018-06-22T06:08:08.546Z,1014.60
2018-06-22T06:09:08.538Z,1014.49
2018-06-22T06:10:08.539Z,1014.53
2018-06-22T06:11:08.547Z,1014.57
2018-06-22T06:12:08.519Z,1014.59
2018-06-22T06:13:08.509Z,1014.57
2018-06-22T06:14:08.510Z,1014.70
2018-06-22T06:15:08.493Z,1014.64
2018-06-22T06:16:08.492Z,1014.66
2018-06-22T06:17:08.481Z,1014.65
2018-06-22T06:18:08.465Z,1014.69
2018-06-22T06:19:08.460Z,1014.77
2018-06-22T06:20:08.576Z,1014.74
2018-06-22T06:21:08.443Z,1014.78
2018-06-22T06:22:08.434Z,1014.77
2018-06-22T06:23:08.430Z,1014.86
2018-06-22T06:24:08.417Z,1014.75
2018-06-22T06:25:08.413Z,1014.80
2018-06-22T06:26:08.403Z,1014.79
2018-06-22T06:27:08.427Z,1014.80
2018-06-22T06:28:08.386Z,1014.80
2018-06-22T06:29:08.377Z,1014.78
2018-06-22T06:30:08.368Z,1014.81
2018-06-22T06:31:08.362Z,1014.79
2018-06-22T06:32:08.356Z,1014.79
2018-06-22T06:33:08.348Z,1014.82
2018-06-22T06:34:08.341Z,1014.81
2018-06-22T06:35:08.337Z,1014.79
2018-06-22T06:36:08.320Z,1014.77
2018-06-22T06:37:08.314Z,1014.86
2018-06-22T06:38:08.309Z,1014.82
2018-06-22T06:39:08.316Z,1014.78
2018-06-22T06:40:08.293Z,1014.87
2018-06-22T06:41:08.285Z,1014.83
2018-06-22T06:42:08.278Z,1014.84
2018-06-22T06:43:08.268Z,1014.86
2018-06-22T06:44:08.257Z,1014.94
2018-06-22T06:45:08.255Z,1014.98
2018-06-22T06:46:08.251Z,1015.01
2018-06-22T06:47:08.239Z,1015.00
2018-06-22T06:48:08.234Z,1014.94
2018-06-22T06:49:08.222Z,1015.03
2018-06-22T06:50:08.210Z,1015.06
2018-06-22T06:51:08.204Z,1014.98
2018-06-22T06:52:08.215Z,1015.01
2018-06-22T06:53:08.195Z,1015.02
2018-06-22T06:54:08.187Z,1015.09
2018-06-22T06:55:08.174Z,1015.04
2018-06-22T06:56:08.170Z,1015.04
2018-06-22T06:57:08.155Z,1014.99
2018-06-22T06:58:08.151Z,1014.97
2018-06-22T06:59:08.144Z,1015.04
2018-06-22T07:00:08.136Z,1015.02
2018-06-22T07:01:08.130Z,1015.07
2018-06-22T07:02:08.122Z,1015.06
2018-06-22T07:03:08.110Z,1015.12
2018-06-22T07:04:08.107Z,1015.08
2018-06-22T07:05:08.097Z,1015.09
2018-06-22T07:06:08.090Z,1015.14
2018-06-22T07:07:08.081Z,1015.07
2018-06-22T07:08:08.078Z,1015.12
2018-06-22T07:09:08.069Z,1015.10
2018-06-22T07:10:08.063Z,1015.15
2018-06-22T07:11:08.052Z,1015.15
2018-06-22T07:12:08.047Z,1015.21
2018-06-22T07:13:08.037Z,1015.23
2018-06-22T07:14:08.030Z,1015.22
2018-06-22T07:15:08.022Z,1015.33
2018-06-22T07:16:08.016Z,1015.27
2018-06-22T07:17:08.069Z,1015.26
2018-06-22T07:18:08.001Z,1015.18
2018-06-22T07:19:08.028Z,1015.27
2018-06-22T07:20:07.991Z,1015.30
2018-06-22T07:21:07.984Z,1015.26
2018-06-22T07:22:07.978Z,1015.33
2018-06-22T07:23:07.971Z,1015.33
2018-06-22T07:24:07.980Z,1015.31
2018-06-22T07:25:07.987Z,1015.25
2018-06-22T07:26:07.951Z,1015.30
2018-06-22T07:27:07.948Z,1015.26
2018-06-22T07:28:07.942Z,1015.33
2018-06-22T07:29:07.937Z,1015.25
2018-06-22T07:30:07.930Z,1015.30
2018-06-22T07:31:07.927Z,1015.32
2018-06-22T07:32:07.918Z,1015.34
2018-06-22T07:33:07.915Z,1015.35
2018-06-22T07:34:07.909Z,1015.36
2018-06-22T07:35:07.906Z,1015.30
2018-06-22T07:36:07.902Z,1015.31
2018-06-22T07:37:07.896Z,1015.28
2018-06-22T07:38:07.892Z,1015.29
2018-06-22T07:39:07.885Z,1015.28
2018-06-22T07:40:07.883Z,1015.40
2018-06-22T07:41:07.883Z,1015.40
2018-06-22T07:42:07.872Z,1015.40
2018-06-22T07:43:07.868Z,1015.47
2018-06-22T07:44:07.866Z,1015.46
2018-06-22T07:45:07.860Z,1015.42
2018-06-22T07:46:07.850Z,1015.41
2018-06-22T07:47:07.848Z,1015.45
2018-06-22T07:48:07.844Z,1015.47
2018-06-22T07:49:07.840Z,1015.40
2018-06-22T07:50:07.843Z,1015.42
2018-06-22T07:51:07.843Z,1015.33
2018-06-22T07:52:07.835Z,1015.38
2018-06-22T07:53:07.829Z,1015.38
2018-06-22T07:54:07.830Z,1015.42
2018-06-22T07:55:07.887Z,1015.40
2018-06-22T07:56:07.820Z,1015.36
2018-06-22T07:57:07.857Z,1015.37
2018-06-22T07:58:07.823Z,1015.36
2018-06-22T07:59:07.812Z,1015.36
2018-06-22T08:00:07.806Z,1015.38
2018-06-22T08:01:07.806Z,1015.38
2018-06-22T08:02:07.803Z,1015.40
2018-06-22T08:03:07.796Z,1015.40
2018-06-22T08:04:07.795Z,1015.46
2018-06-22T08:05:07.795Z,1015.55
2018-06-22T08:06:07.827Z,1015.45
2018-06-22T08:07:07.785Z,1015.46
2018-06-22T08:08:07.779Z,1015.47
2018-06-22T08:09:07.775Z,1015.49
2018-06-22T08:10:07.775Z,1015.37
2018-06-22T08:11:07.769Z,1015.39
2018-06-22T08:12:07.768Z,1015.39
2018-06-22T08:13:07.765Z,1015.30
2018-06-22T08:14:07.759Z,1015.36
2018-06-22T08:15:07.756Z,1015.29
2018-06-22T08:16:07.750Z,1015.40
2018-06-22T08:17:07.751Z,1015.38
2018-06-22T08:18:07.747Z,1015.36
2018-06-22T08:19:07.742Z,1015.42
2018-06-22T08:20:07.739Z,1015.51
2018-06-22T08:21:07.740Z,1015.39
2018-06-22T08:22:07.737Z,1015.40
2018-06-22T08:23:07.727Z,1015.50
2018-06-22T08:24:07.728Z,1015.55
2018-06-22T08:25:07.723Z,1015.62
2018-06-22T08:26:07.716Z,1015.54
2018-06-22T08:27:07.711Z,1015.53
2018-06-22T08:28:07.707Z,1015.59
2018-06-22T08:29:07.706Z,1015.47
2018-06-22T08:30:07.706Z,1015.48
2018-06-22T08:31:07.701Z,1015.53
2018-06-22T08:32:07.698Z,1015.54
2018-06-22T08:33:07.700Z,1015.55
2018-06-22T08:34:07.692Z,1015.56
2018-06-22T08:35:07.687Z,1015.54
2018-06-22T08:36:07.681Z,1015.50
2018-06-22T08:37:07.680Z,1015.57
2018-06-22T08:38:07.675Z,1015.63
2018-06-22T08:39:07.671Z,1015.61
2018-06-22T08:40:07.667Z,1015.63
2018-06-22T08:41:07.663Z,1015.61
2018-06-22T08:42:07.675Z,1015.59
2018-06-22T08:43:07.654Z,1015.66
2018-06-22T08:44:07.646Z,1015.67
2018-06-22T08:45:07.647Z,1015.61
2018-06-22T08:46:07.643Z,1015.64
2018-06-22T08:47:07.639Z,1015.68
2018-06-22T08:48:07.631Z,1015.65
2018-06-22T08:49:07.631Z,1015.65
2018-06-22T08:50:07.620Z,1015.66
2018-06-22T08:51:07.612Z,1015.63
2018-06-22T08:52:07.610Z,1015.74
2018-06-22T08:53:07.602Z,1015.79
2018-06-22T08:54:07.601Z,1015.78
2018-06-22T08:55:07.596Z,1015.69
2018-06-22T08:56:07.589Z,1015.72
2018-06-22T08:57:07.581Z,1015.81
2018-06-22T08:58:07.581Z,1015.69
2018-06-22T08:59:07.576Z,1015.76
2018-06-22T09:00:07.572Z,1015.79
2018-06-22T09:01:07.613Z,1015.75
2018-06-22T09:02:07.567Z,1015.84
2018-06-22T09:03:07.563Z,1015.69
2018-06-22T09:04:07.557Z,1015.70
2018-06-22T09:05:07.555Z,1015.79
2018-06-22T09:06:07.558Z,1015.79
2018-06-22T09:07:07.554Z,1015.90
2018-06-22T09:08:07.623Z,1015.89
2018-06-22T09:09:07.549Z,1015.78
2018-06-22T09:10:07.544Z,1015.89
2018-06-22T09:11:07.541Z,1015.87
2018-06-22T09:12:07.539Z,1015.91
2018-06-22T09:13:07.540Z,1015.94
2018-06-22T09:14:07.538Z,1015.90
2018-06-22T09:15:07.536Z,1015.83
2018-06-22T09:16:07.530Z,1015.89
2018-06-22T09:17:07.528Z,1015.95
2018-06-22T09:18:07.527Z,1015.93
2018-06-22T09:19:07.525Z,1015.95
2018-06-22T09:20:07.526Z,1015.97
2018-06-22T09:21:07.523Z,1015.96
2018-06-22T09:22:07.529Z,1015.99
2018-06-22T09:23:07.513Z,1015.94
2018-06-22T09:24:07.521Z,1016.03
2018-06-22T09:25:07.513Z,1015.94
2018-06-22T09:26:07.510Z,1016.00
2018-06-22T09:27:07.508Z,1015.97
2018-06-22T09:28:07.504Z,1016.04
2018-06-22T09:29:07.501Z,1016.04
2018-06-22T09:30:07.547Z,1016.02
2018-06-22T09:31:07.494Z,1016.06
2018-06-22T09:32:07.494Z,1016.16
2018-06-22T09:33:07.490Z,1016.16
2018-06-22T09:34:07.490Z,1016.10
2018-06-22T09:35:07.487Z,1016.17
2018-06-22T09:36:07.488Z,1016.29
2018-06-22T09:37:07.484Z,1016.27
2018-06-22T09:38:07.476Z,1016.25
2018-06-22T09:39:07.470Z,1016.29
2018-06-22T09:40:07.472Z,1016.28
2018-06-22T09:41:07.472Z,1016.31
2018-06-22T09:42:07.466Z,1016.28
2018-06-22T09:43:07.460Z,1016.34
2018-06-22T09:44:07.463Z,1016.33
2018-06-22T09:45:07.465Z,1016.40
2018-06-22T09:46:07.755Z,1016.36
2018-06-22T09:47:07.637Z,1016.27
2018-06-22T09:48:07.509Z,1016.36
2018-06-22T09:49:11.860Z,1016.29
2018-06-22T09:50:07.558Z,1016.30
2018-06-22T09:51:07.489Z,1016.38
2018-06-22T09:52:07.978Z,1016.29
2018-06-22T09:53:07.579Z,1016.29
2018-06-22T09:54:10.373Z,1016.33
2018-06-22T09:55:07.649Z,1016.40
2018-06-22T09:56:07.520Z,1016.33
2018-06-22T09:57:07.407Z,1016.34
2018-06-22T09:58:07.406Z,1016.38
2018-06-22T09:59:07.400Z,1016.43
2018-06-22T10:00:07.395Z,1016.40
2018-06-22T10:01:07.393Z,1016.44
2018-06-22T10:02:07.413Z,1016.44
2018-06-22T10:03:07.385Z,1016.43
2018-06-22T10:04:07.397Z,1016.40
2018-06-22T10:05:07.386Z,1016.32
2018-06-22T10:06:07.382Z,1016.37
2018-06-22T10:07:07.380Z,1016.38
2018-06-22T10:08:07.410Z,1016.35
2018-06-22T10:09:07.383Z,1016.37
2018-06-22T10:10:07.385Z,1016.34
2018-06-22T10:11:07.382Z,1016.39
2018-06-22T10:12:07.382Z,1016.31
2018-06-22T10:13:07.381Z,1016.39
2018-06-22T10:14:07.381Z,1016.41
2018-06-22T10:15:07.385Z,1016.45
2018-06-22T10:16:07.386Z,1016.35
2018-06-22T10:17:07.387Z,1016.51
2018-06-22T10:18:07.388Z,1016.51
2018-06-22T10:19:07.382Z,1016.45
2018-06-22T10:20:07.387Z,1016.44
2018-06-22T10:21:07.384Z,1016.46
2018-06-22T10:22:07.389Z,1016.38
2018-06-22T10:23:07.390Z,1016.41
2018-06-22T10:24:07.385Z,1016.37
2018-06-22T10:25:07.386Z,1016.40
2018-06-22T10:26:07.387Z,1016.39
2018-06-22T10:27:07.531Z,1016.43
2018-06-22T10:28:07.384Z,1016.41
2018-06-22T10:29:07.386Z,1016.46
2018-06-22T10:30:07.388Z,1016.26
2018-06-22T10:31:07.386Z,1016.44
2018-06-22T10:32:07.384Z,1016.41
2018-06-22T10:33:07.382Z,1016.44
2018-06-22T10:34:07.380Z,1016.52
2018-06-22T10:35:07.382Z,1016.45
2018-06-22T10:36:07.381Z,1016.45
2018-06-22T10:37:07.380Z,1016.40
2018-06-22T10:38:07.379Z,1016.37
2018-06-22T10:39:07.388Z,1016.44
2018-06-22T10:40:07.374Z,1016.44
2018-06-22T10:41:07.372Z,1016.41
2018-06-22T10:42:07.396Z,1016.41
2018-06-22T10:43:07.372Z,1016.45
2018-06-22T10:44:07.374Z,1016.45
2018-06-22T10:45:07.368Z,1016.48
2018-06-22T10:46:07.391Z,1016.46
2018-06-22T10:47:07.358Z,1016.53
2018-06-22T10:48:07.359Z,1016.47
2018-06-22T10:49:07.377Z,1016.45
2018-06-22T10:50:07.358Z,1016.45
2018-06-22T10:51:07.358Z,1016.45
2018-06-22T10:52:07.358Z,1016.40
2018-06-22T10:53:07.356Z,1016.40
2018-06-22T10:54:07.353Z,1016.42
2018-06-22T10:55:07.355Z,1016.50
2018-06-22T10:56:07.361Z,1016.43
2018-06-22T10:57:07.360Z,1016.46
2018-06-22T10:58:07.362Z,1016.43
2018-06-22T10:59:07.362Z,1016.51
2018-06-22T11:00:07.360Z,1016.42
2018-06-22T11:01:07.366Z,1016.45
2018-06-22T11:02:07.371Z,1016.44
2018-06-22T11:03:07.371Z,1016.58
2018-06-22T11:04:07.378Z,1016.60
2018-06-22T11:05:07.371Z,1016.50
2018-06-22T11:06:07.378Z,1016.49
2018-06-22T11:07:07.380Z,1016.60
2018-06-22T11:08:07.384Z,1016.55
2018-06-22T11:09:07.382Z,1016.52
2018-06-22T11:10:07.391Z,1016.62
2018-06-22T11:11:07.391Z,1016.68
2018-06-22T11:12:07.396Z,1016.57
2018-06-22T11:13:07.401Z,1016.56
2018-06-22T11:14:07.401Z,1016.66
2018-06-22T11:15:07.403Z,1016.63
2018-06-22T11:16:07.411Z,1016.55
2018-06-22T11:17:07.435Z,1016.61
2018-06-22T11:18:07.420Z,1016.50
2018-06-22T11:19:07.422Z,1016.51
2018-06-22T11:20:07.425Z,1016.54
2018-06-22T11:21:07.454Z,1016.51
2018-06-22T11:22:07.432Z,1016.59
2018-06-22T11:23:07.433Z,1016.53
2018-06-22T11:24:07.439Z,1016.49
2018-06-22T11:25:07.452Z,1016.32
2018-06-22T11:26:07.444Z,1016.59
2018-06-22T11:27:07.453Z,1016.56
2018-06-22T11:28:07.450Z,1016.58
2018-06-22T11:29:07.469Z,1016.56
2018-06-22T11:30:07.452Z,1016.64
2018-06-22T11:31:07.456Z,1016.65
2018-06-22T11:32:07.492Z,1016.59
2018-06-22T11:33:07.462Z,1016.58
2018-06-22T11:34:07.461Z,1016.59
2018-06-22T11:35:07.466Z,1016.56
2018-06-22T11:36:07.469Z,1016.61
2018-06-22T11:37:07.472Z,1016.53
2018-06-22T11:38:07.474Z,1016.56
2018-06-22T11:39:07.471Z,1016.56
2018-06-22T11:40:07.476Z,1016.58
2018-06-22T11:41:07.474Z,1016.59
2018-06-22T11:42:07.482Z,1016.60
2018-06-22T11:43:07.478Z,1016.68
2018-06-22T11:44:07.478Z,1016.77
2018-06-22T11:45:07.481Z,1016.72
2018-06-22T11:46:07.486Z,1016.77
2018-06-22T11:47:07.481Z,1016.79
2018-06-22T11:48:07.483Z,1016.72
2018-06-22T11:49:07.478Z,1016.79
2018-06-22T11:50:07.478Z,1016.84
2018-06-22T11:51:07.485Z,1016.85
2018-06-22T11:52:07.480Z,1016.97
2018-06-22T11:53:07.480Z,1017.06
2018-06-22T11:54:07.483Z,1016.95
2018-06-22T11:55:07.474Z,1016.96
2018-06-22T11:56:07.475Z,1017.05
2018-06-22T11:57:07.475Z,1017.03
2018-06-22T11:58:07.478Z,1016.96
2018-06-22T11:59:07.520Z,1017.04
2018-06-22T12:00:07.474Z,1017.02
2018-06-22T12:01:07.475Z,1017.03
2018-06-22T12:02:07.473Z,1016.94
2018-06-22T12:03:07.473Z,1016.94
2018-06-22T12:04:07.502Z,1016.92
2018-06-22T12:05:07.481Z,1016.92